Time;durP1;ratioP1;P1;durP2;ratioP2;P2;SDS_P1;SDS_P2;PMS_P1;PMS_P2;Temp;Humidity;BMP_temperature;BMP_pressure;BME280_temperature;BME280_humidity;BME280_pressure;Samples;Min_cycle;Max_cycle;Signal;HPM_P1;HPM_P2
2023/05/04 04:22:34;;;;;;;5.35;2.67;;;;;;;9.14;95.54;100613.84;5089372;28;20404;-68
2023/05/04 04:25:00;;;;;;;4.78;3.00;;;;;;;9.14;95.40;100612.00;5089423;28;20036;-69
2023/05/04 04:27:25;;;;;;;4.72;2.67;;;;;;;9.17;95.00;100610.84;5088862;28;20090;-68
2023/05/04 04:29:50;;;;;;;4.60;3.08;;;;;;;9.21;95.77;100615.72;5089251;28;20089;-68
2023/05/04 04:32:16;;;;;;;4.22;3.33;;;;;;;9.22;96.03;100622.69;5089244;28;20094;-68
2023/05/04 04:34:41;;;;;;;4.20;3.03;;;;;;;9.24;95.17;100619.88;5089160;28;20037;-68
2023/05/04 04:37:06;;;;;;;4.35;2.85;;;;;;;9.33;94.89;100621.63;5088841;28;20529;-69
2023/05/04 04:39:32;;;;;;;5.20;3.50;;;;;;;9.37;94.92;100620.28;5089051;28;20043;-68
2023/05/04 04:41:57;;;;;;;3.60;3.00;;;;;;;9.42;94.71;100618.00;5089014;28;20045;-69
2023/05/04 04:44:23;;;;;;;5.13;3.58;;;;;;;9.51;93.65;100618.88;5088933;28;20118;-69
2023/05/04 04:46:48;;;;;;;5.55;3.78;;;;;;;9.53;93.87;100622.22;5088730;28;20066;-69
2023/05/04 04:49:16;;;;;;;7.82;4.97;;;;;;;9.59;93.59;100626.94;5088674;28;20554;-67
2023/05/04 04:51:42;;;;;;;5.88;4.32;;;;;;;9.68;92.82;100611.84;5088942;28;20060;-66
2023/05/04 04:54:07;;;;;;;4.38;3.10;;;;;;;9.72;92.08;100613.19;5089834;28;20461;-67
2023/05/04 04:56:33;;;;;;;4.22;3.13;;;;;;;9.80;91.69;100613.22;5085234;28;20047;-66
2023/05/04 04:58:58;;;;;;;5.50;3.80;;;;;;;9.83;91.93;100620.88;5087922;28;20134;-68
2023/05/04 05:01:25;;;;;;;5.35;3.47;;;;;;;9.82;91.38;100613.06;5088538;28;20052;-67
2023/05/04 05:03:50;;;;;;;5.57;3.33;;;;;;;9.88;90.77;100617.75;5088529;28;20129;-68
2023/05/04 05:06:16;;;;;;;4.68;3.00;;;;;;;9.94;90.68;100628.59;5088406;28;20478;-67
2023/05/04 05:08:42;;;;;;;5.03;3.25;;;;;;;9.98;91.29;100629.13;5088271;28;20099;-66
2023/05/04 05:11:09;;;;;;;4.15;2.72;;;;;;;10.02;90.58;100623.28;5088645;28;20050;-63
2023/05/04 05:13:34;;;;;;;4.68;3.13;;;;;;;10.06;90.14;100629.97;5088444;28;20040;-61
2023/05/04 05:16:00;;;;;;;5.45;3.40;;;;;;;10.14;89.51;100628.34;5088279;28;20047;-61
2023/05/04 05:18:25;;;;;;;3.78;2.78;;;;;;;10.19;89.23;100626.84;5088018;28;20138;-63
2023/05/04 05:20:51;;;;;;;5.15;3.60;;;;;;;10.19;89.57;100631.34;5088246;28;20477;-62
2023/05/04 05:23:16;;;;;;;3.80;2.92;;;;;;;10.25;89.39;100631.56;5088329;28;20076;-62
2023/05/04 05:25:43;;;;;;;5.20;3.38;;;;;;;10.37;89.04;100632.13;5088233;28;20127;-62
2023/05/04 05:28:09;;;;;;;4.57;3.10;;;;;;;10.40;88.80;100630.94;5087770;28;20478;-63
2023/05/04 05:30:34;;;;;;;4.85;3.33;;;;;;;10.41;88.90;100635.25;5088003;28;20463;-61
2023/05/04 05:33:00;;;;;;;4.68;3.38;;;;;;;10.48;88.41;100636.28;5079292;28;20044;-60
2023/05/04 05:35:26;;;;;;;4.15;3.10;;;;;;;10.56;87.92;100621.16;5073990;28;20093;-65
2023/05/04 05:37:51;;;;;;;5.45;2.97;;;;;;;10.64;87.69;100627.50;5074112;28;20036;-63
2023/05/04 05:40:17;;;;;;;5.43;3.63;;;;;;;10.75;86.96;100625.31;5074275;28;20721;-62
2023/05/04 05:42:43;;;;;;;5.05;3.50;;;;;;;10.89;86.26;100623.88;5074305;28;20493;-62
2023/05/04 05:45:10;;;;;;;4.63;2.78;;;;;;;10.91;86.44;100624.53;5074230;28;20039;-61
2023/05/04 05:47:35;;;;;;;6.57;3.00;;;;;;;10.99;85.78;100627.19;5073890;28;20037;-63
2023/05/04 05:50:05;;;;;;;6.03;3.40;;;;;;;11.08;85.77;100633.34;5072887;28;20438;-62
2023/05/04 05:52:30;;;;;;;5.47;3.50;;;;;;;11.14;85.46;100630.00;5074037;28;20123;-62
2023/05/04 05:54:56;;;;;;;4.13;3.00;;;;;;;11.16;87.69;100624.53;5074189;28;20048;-62
2023/05/04 05:57:21;;;;;;;4.25;3.38;;;;;;;11.26;86.93;100627.84;5072522;28;20037;-63
2023/05/04 05:59:47;;;;;;;5.40;3.42;;;;;;;11.28;85.41;100624.03;5074184;28;20044;-64
2023/05/04 06:02:13;;;;;;;5.63;3.35;;;;;;;11.34;86.62;100622.47;5073880;28;20029;-63
2023/05/04 06:04:43;;;;;;;6.10;3.25;;;;;;;11.41;86.30;100628.84;5074168;28;20031;-64
2023/05/04 06:07:09;;;;;;;4.80;3.38;;;;;;;11.46;85.73;100626.47;5073738;28;20028;-63
2023/05/04 06:09:35;;;;;;;5.65;3.50;;;;;;;11.54;85.48;100630.94;5073935;28;20473;-62
2023/05/04 06:12:01;;;;;;;4.55;3.10;;;;;;;11.66;84.00;100630.41;5073690;28;20048;-60
2023/05/04 06:14:26;;;;;;;6.50;3.63;;;;;;;11.77;83.87;100620.41;5073812;28;20044;-63
2023/05/04 06:16:52;;;;;;;5.82;3.33;;;;;;;11.95;82.10;100618.38;5073478;28;20051;-61
2023/05/04 06:19:17;;;;;;;6.60;3.85;;;;;;;12.05;81.63;100620.81;5073612;28;20396;-62
2023/05/04 06:21:43;;;;;;;3.67;3.20;;;;;;;12.23;80.83;100616.88;5073697;28;20485;-64
2023/05/04 06:24:08;;;;;;;5.60;3.63;;;;;;;12.14;81.46;100619.78;5073827;28;20473;-61
2023/05/04 06:26:34;;;;;;;3.95;3.10;;;;;;;12.20;81.48;100619.09;5073575;28;20090;-61
2023/05/04 06:28:59;;;;;;;5.20;3.30;;;;;;;12.34;81.45;100614.84;5073671;28;20036;-63
2023/05/04 06:31:24;;;;;;;3.45;2.67;;;;;;;12.39;80.21;100615.97;5073486;28;20040;-63
2023/05/04 06:33:50;;;;;;;4.15;2.95;;;;;;;12.40;80.80;100614.13;5073694;28;20041;-62
2023/05/04 06:36:16;;;;;;;4.80;3.55;;;;;;;12.38;81.27;100611.63;5072270;28;20040;-63
2023/05/04 06:38:41;;;;;;;5.00;3.38;;;;;;;12.41;81.03;100613.97;5073231;28;20039;-63
2023/05/04 06:41:07;;;;;;;5.95;3.35;;;;;;;12.45;81.35;100615.28;5073359;28;20123;-61
2023/05/04 06:43:32;;;;;;;6.20;3.70;;;;;;;12.60;80.94;100618.00;5073031;28;20045;-62
2023/05/04 06:46:04;;;;;;;4.88;3.58;;;;;;;12.69;79.75;100614.25;5072663;28;20056;-62
2023/05/04 06:48:30;;;;;;;6.60;3.78;;;;;;;12.75;79.65;100626.91;5072976;28;20041;-63
2023/05/04 06:50:56;;;;;;;4.63;3.80;;;;;;;12.87;81.01;100626.50;5073137;28;20048;-64
2023/05/04 06:53:21;;;;;;;3.83;3.20;;;;;;;13.03;78.83;100619.16;5073184;28;20469;-62
2023/05/04 06:55:46;;;;;;;4.95;3.55;;;;;;;13.07;78.31;100619.66;5073014;28;20036;-63
2023/05/04 06:58:12;;;;;;;4.72;3.55;;;;;;;13.16;79.77;100617.72;5072774;28;20063;-63
2023/05/04 07:00:38;;;;;;;6.47;3.25;;;;;;;13.21;79.84;100613.53;5072988;28;20082;-62
2023/05/04 07:03:03;;;;;;;5.47;3.10;;;;;;;13.40;79.47;100609.50;5071812;28;20024;-62
2023/05/04 07:05:29;;;;;;;4.47;3.65;;;;;;;13.43;78.18;100611.84;5072836;28;20401;-62
2023/05/04 07:07:54;;;;;;;4.97;3.30;;;;;;;13.53;76.87;100611.56;5072610;28;20051;-62
2023/05/04 07:10:20;;;;;;;4.57;3.80;;;;;;;13.63;76.84;100614.81;5072758;28;20044;-63
2023/05/04 07:12:45;;;;;;;5.38;3.08;;;;;;;13.64;76.13;100610.28;5072847;28;20375;-62
2023/05/04 07:15:11;;;;;;;3.55;3.15;;;;;;;13.70;76.75;100604.19;5072610;28;20071;-63
2023/05/04 07:17:37;;;;;;;4.57;3.25;;;;;;;13.77;77.52;100602.44;5072297;28;20036;-63
2023/05/04 07:20:04;;;;;;;5.68;3.45;;;;;;;13.92;75.50;100599.75;5072634;28;20115;-62
2023/05/04 07:22:30;;;;;;;4.63;3.20;;;;;;;13.94;75.14;100593.16;5072787;28;20028;-62
2023/05/04 07:25:00;;;;;;;5.05;3.35;;;;;;;14.15;73.92;100594.25;5072385;28;20375;-63
2023/05/04 07:27:25;;;;;;;4.63;3.75;;;;;;;14.18;73.23;100573.28;5072032;28;20051;-63
2023/05/04 07:29:51;;;;;;;4.80;3.53;;;;;;;14.21;72.43;100588.97;5072099;28;20404;-63
2023/05/04 07:32:17;;;;;;;4.05;3.50;;;;;;;14.30;73.33;100577.13;5072295;28;20043;-63
2023/05/04 07:34:43;;;;;;;3.47;3.13;;;;;;;14.38;73.98;100585.03;5072535;28;20039;-62
2023/05/04 07:37:09;;;;;;;8.45;3.55;;;;;;;14.45;72.43;100584.28;5072016;28;20032;-61
2023/05/04 07:39:35;;;;;;;4.85;3.58;;;;;;;14.52;71.64;100578.00;5072314;28;20131;-63
2023/05/04 07:42:04;;;;;;;5.05;3.65;;;;;;;14.61;71.49;100578.72;5072317;28;20457;-62
2023/05/04 07:44:30;;;;;;;5.20;3.50;;;;;;;14.72;71.33;100577.34;5072267;28;20079;-63
2023/05/04 07:47:00;;;;;;;4.88;3.45;;;;;;;14.80;70.46;100582.59;5072073;28;20394;-62
2023/05/04 07:49:25;;;;;;;5.25;3.47;;;;;;;14.86;70.90;100571.91;5072122;28;20032;-62
2023/05/04 07:51:51;;;;;;;3.78;3.10;;;;;;;14.99;70.51;100567.69;5071998;28;20045;-62
2023/05/04 07:54:17;;;;;;;5.72;3.47;;;;;;;15.12;70.07;100567.78;5072075;28;20075;-62
2023/05/04 07:56:42;;;;;;;5.60;3.40;;;;;;;15.20;69.45;100570.34;5072123;28;20039;-61
2023/05/04 07:59:08;;;;;;;6.15;3.50;;;;;;;15.24;69.25;100563.53;5071876;28;20067;-63
2023/05/04 08:01:33;;;;;;;4.13;2.90;;;;;;;15.44;69.64;100569.88;5072028;28;20412;-63
2023/05/04 08:03:59;;;;;;;4.90;3.40;;;;;;;15.57;67.45;100562.94;5072133;28;20326;-62
2023/05/04 08:06:24;;;;;;;4.20;2.90;;;;;;;15.61;67.03;100551.59;5071828;28;20390;-61
2023/05/04 08:08:50;;;;;;;4.32;3.00;;;;;;;15.72;67.54;100551.06;5071696;28;20043;-62
2023/05/04 08:11:16;;;;;;;3.80;2.65;;;;;;;15.87;66.59;100553.59;5071881;28;20041;-62
2023/05/04 08:13:43;;;;;;;4.25;3.45;;;;;;;15.97;65.88;100554.06;5071895;28;20056;-63
2023/05/04 08:16:09;;;;;;;4.22;3.15;;;;;;;16.14;65.00;100548.34;5072143;28;20436;-63
2023/05/04 08:18:34;;;;;;;3.70;2.70;;;;;;;16.33;63.64;100550.25;5071361;28;20048;-61
2023/05/04 08:21:00;;;;;;;5.45;3.58;;;;;;;16.47;60.84;100546.53;5071472;28;20041;-62
2023/05/04 08:23:25;;;;;;;4.72;2.95;;;;;;;16.60;60.92;100542.22;5071590;28;20308;-63
2023/05/04 08:25:51;;;;;;;4.68;3.08;;;;;;;16.76;62.02;100536.47;5071662;28;20378;-63
2023/05/04 08:28:17;;;;;;;3.50;3.00;;;;;;;16.87;60.70;100543.09;5071383;28;20032;-62
2023/05/04 08:30:42;;;;;;;4.35;2.90;;;;;;;17.01;61.84;100529.41;5070410;28;20378;-63
2023/05/04 08:33:08;;;;;;;4.90;2.60;;;;;;;17.20;60.84;100529.59;5071675;28;20044;-64
2023/05/04 08:35:33;;;;;;;3.72;2.92;;;;;;;17.28;58.26;100526.72;5071535;28;20036;-61
2023/05/04 08:38:00;;;;;;;5.20;3.40;;;;;;;17.45;58.18;100524.38;5071264;28;20039;-61
2023/05/04 08:40:26;;;;;;;4.60;2.78;;;;;;;17.62;58.43;100537.19;5071495;28;20405;-63
2023/05/04 08:42:51;;;;;;;3.65;2.70;;;;;;;17.62;58.38;100528.28;5071530;28;20048;-64
2023/05/04 08:45:17;;;;;;;3.92;2.70;;;;;;;17.80;58.51;100536.53;5071820;28;20036;-62
2023/05/04 08:47:43;;;;;;;3.22;2.92;;;;;;;17.98;56.39;100529.59;5071253;28;20039;-64
2023/05/04 08:50:10;;;;;;;3.70;3.17;;;;;;;18.10;54.74;100533.28;5071401;28;20044;-63
2023/05/04 08:52:39;;;;;;;3.55;2.83;;;;;;;18.29;54.64;100531.50;5071291;28;20043;-63
2023/05/04 08:55:06;;;;;;;4.00;2.95;;;;;;;18.51;53.02;100523.88;5071442;28;20049;-61
2023/05/04 08:57:32;;;;;;;3.60;2.90;;;;;;;18.73;52.11;100529.78;5071158;28;20062;-60
2023/05/04 08:59:58;;;;;;;3.20;2.35;;;;;;;18.76;52.40;100523.94;5071334;28;20040;-62
2023/05/04 09:02:25;;;;;;;3.43;2.90;;;;;;;18.84;51.78;100518.25;5070221;28;20036;-61
2023/05/04 09:04:51;;;;;;;4.75;2.88;;;;;;;18.98;50.34;100522.50;5071307;28;20054;-60
2023/05/04 09:07:18;;;;;;;4.60;2.90;;;;;;;19.12;50.35;100525.91;5071761;28;20032;-62
2023/05/04 09:09:46;;;;;;;2.50;2.30;;;;;;;19.13;50.03;100520.28;5075304;28;20040;-62
2023/05/04 09:12:12;;;;;;;4.05;2.80;;;;;;;19.25;52.22;100514.97;5074960;28;20403;-61
2023/05/04 09:14:38;;;;;;;3.92;2.72;;;;;;;19.67;48.65;100515.16;5075251;28;20047;-62
2023/05/04 09:17:15;;;;;;;2.63;2.25;;;;;;;19.71;48.66;100506.38;5075401;28;20033;-62
2023/05/04 09:19:42;;;;;;;3.80;2.83;;;;;;;19.94;48.39;100508.34;5074950;28;20047;-63
2023/05/04 09:22:18;;;;;;;3.17;2.47;;;;;;;19.93;47.36;100503.19;5075009;28;20033;-63
2023/05/04 09:24:44;;;;;;;3.15;2.38;;;;;;;20.48;46.87;100508.47;5074807;28;20032;-60
2023/05/04 09:27:15;;;;;;;4.22;2.90;;;;;;;20.79;45.96;100501.91;5074375;28;20432;-62
2023/05/04 09:29:41;;;;;;;5.20;2.80;;;;;;;20.80;46.74;100496.28;5074698;28;20383;-62
2023/05/04 09:32:13;;;;;;;4.13;2.47;;;;;;;20.92;46.80;100504.38;5074503;28;20123;-65
2023/05/04 09:34:50;;;;;;;3.40;2.88;;;;;;;21.14;44.76;100499.22;5074578;28;20033;-63
2023/05/04 09:37:16;;;;;;;4.05;2.50;;;;;;;21.58;44.88;100496.94;5074198;28;20036;-61
2023/05/04 09:39:54;;;;;;;3.92;2.80;;;;;;;21.48;44.91;100486.72;5074939;28;20492;-62
2023/05/04 09:42:21;;;;;;;3.25;2.70;;;;;;;21.75;44.91;100489.69;5074324;28;20036;-62
2023/05/04 09:44:58;;;;;;;3.10;2.53;;;;;;;22.09;44.37;100487.13;5074415;28;20066;-62
2023/05/04 09:47:32;;;;;;;3.58;2.58;;;;;;;22.04;44.01;100490.53;5074010;28;20043;-63
2023/05/04 09:49:58;;;;;;;4.50;2.70;;;;;;;22.26;43.39;100487.16;5074323;28;20032;-63
2023/05/04 09:52:28;;;;;;;3.25;2.50;;;;;;;22.54;42.68;100489.00;5074232;28;20119;-62
2023/05/04 09:54:54;;;;;;;3.05;2.60;;;;;;;22.73;41.49;100485.78;5074106;28;20078;-63
2023/05/04 09:57:22;;;;;;;3.83;2.60;;;;;;;22.78;42.17;100479.63;5073940;28;20040;-64
2023/05/04 09:59:48;;;;;;;3.53;2.35;;;;;;;22.98;40.73;100481.84;5074206;28;20040;-64
2023/05/04 10:02:13;;;;;;;3.30;2.40;;;;;;;23.45;40.45;100481.41;5074208;28;20089;-62
2023/05/04 10:04:39;;;;;;;3.47;3.17;;;;;;;23.73;39.67;100480.41;5073943;28;20111;-63
2023/05/04 10:07:05;;;;;;;3.08;2.75;;;;;;;24.05;39.85;100475.03;5073592;28;20067;-64
2023/05/04 10:09:32;;;;;;;6.22;2.70;;;;;;;24.37;38.84;100485.97;5073871;28;20037;-63
2023/05/04 10:12:04;;;;;;;3.45;2.83;;;;;;;24.58;38.24;100468.75;5073876;28;20047;-63
2023/05/04 10:14:31;;;;;;;2.92;2.63;;;;;;;24.74;37.56;100471.59;5073996;28;20032;-63
2023/05/04 10:17:23;;;;;;;2.38;2.17;;;;;;;24.73;38.23;100459.06;5073667;28;20500;-63
2023/05/04 10:19:56;;;;;;;2.80;2.50;;;;;;;24.76;37.65;100461.25;5068437;28;20570;-63
2023/05/04 10:23:00;;;;;;;2.55;2.17;;;;;;;25.20;35.87;100455.56;5073794;28;20050;-62
2023/05/04 10:25:31;;;;;;;2.53;2.03;;;;;;;25.11;35.79;100447.88;5060484;28;20386;-63
2023/05/04 10:28:10;;;;;;;2.42;2.00;;;;;;;25.46;36.37;100443.69;5073376;28;20098;-62
2023/05/04 10:30:35;;;;;;;2.50;2.13;;;;;;;25.94;36.60;100436.19;5073663;28;20071;-63
2023/05/04 10:33:01;;;;;;;3.30;2.15;;;;;;;26.25;35.55;100440.59;5073655;28;20072;-62
2023/05/04 10:35:27;;;;;;;2.50;2.28;;;;;;;26.35;34.25;100438.97;5073647;28;20049;-62
2023/05/04 10:37:54;;;;;;;2.83;2.22;;;;;;;26.51;34.38;100435.16;5072058;28;20070;-64
2023/05/04 10:40:40;;;;;;;3.40;2.40;;;;;;;25.84;35.05;100423.38;5073565;28;20037;-61
2023/05/04 10:43:07;;;;;;;3.15;1.98;;;;;;;26.67;34.15;100425.88;5073191;28;20075;-61
2023/05/04 10:45:39;;;;;;;2.85;2.20;;;;;;;26.36;34.28;100421.50;5073179;28;20029;-62
2023/05/04 10:48:06;;;;;;;2.08;1.88;;;;;;;27.09;34.17;100421.97;5072811;28;20508;-61
2023/05/04 10:50:45;;;;;;;3.50;1.83;;;;;;;27.12;34.30;100412.38;5073304;28;20048;-63
2023/05/04 10:53:11;;;;;;;2.05;1.85;;;;;;;27.51;33.72;100404.28;5073097;28;20089;-63
2023/05/04 10:55:47;;;;;;;4.22;2.22;;;;;;;27.55;32.58;100406.16;5073014;28;20035;-62
2023/05/04 10:58:17;;;;;;;3.80;2.08;;;;;;;26.84;32.91;100405.63;5072632;28;20048;-62
2023/05/04 11:00:45;;;;;;;2.95;1.98;;;;;;;27.71;31.42;100395.16;5073136;28;20118;-63
2023/05/04 11:03:12;;;;;;;2.00;1.67;;;;;;;27.69;32.12;100389.16;5072963;28;20036;-63
2023/05/04 11:05:54;;;;;;;2.50;1.85;;;;;;;28.18;30.94;100391.81;5072863;28;20033;-62
2023/05/04 11:08:24;;;;;;;2.38;1.63;;;;;;;27.78;31.22;100377.34;5072725;28;20044;-63
2023/05/04 11:11:20;;;;;;;2.55;1.98;;;;;;;28.15;31.09;100381.44;5072596;28;20055;-62
2023/05/04 11:13:46;;;;;;;3.22;1.80;;;;;;;28.13;31.02;100380.91;5064135;28;20048;-60
2023/05/04 11:16:13;;;;;;;2.50;2.20;;;;;;;27.14;31.67;100369.19;5072536;28;20051;-63
2023/05/04 11:18:39;;;;;;;1.92;1.73;;;;;;;28.26;30.37;100366.56;5072253;28;20039;-64
2023/05/04 11:21:05;;;;;;;2.13;1.90;;;;;;;28.36;31.13;100371.13;5072372;28;20040;-62
2023/05/04 11:23:31;;;;;;;1.77;1.58;;;;;;;28.61;29.16;100373.63;5072395;28;20044;-64
2023/05/04 11:25:57;;;;;;;2.33;1.92;;;;;;;28.68;30.05;100370.53;5072428;28;20049;-63
2023/05/04 11:28:36;;;;;;;4.85;2.03;;;;;;;28.73;29.69;100377.91;5072180;28;20040;-63
2023/05/04 11:31:15;;;;;;;2.25;2.00;;;;;;;29.14;28.92;100359.88;5070612;28;20505;-64
2023/05/04 11:33:45;;;;;;;2.03;1.80;;;;;;;28.66;30.38;100367.28;5072390;28;20055;-63
2023/05/04 11:36:11;;;;;;;2.10;1.90;;;;;;;29.12;28.27;100366.78;5072216;28;20111;-63
2023/05/04 11:38:37;;;;;;;2.72;1.75;;;;;;;29.42;28.97;100362.81;5071934;28;20120;-63
2023/05/04 11:41:02;;;;;;;2.17;1.77;;;;;;;28.67;29.67;100363.44;5072320;28;20122;-63
2023/05/04 11:43:28;;;;;;;1.67;1.40;;;;;;;29.15;29.74;100349.75;5072324;28;20139;-63
2023/05/04 11:45:56;;;;;;;2.23;1.30;;;;;;;29.66;29.08;100343.56;5072144;28;20059;-63
2023/05/04 11:48:22;;;;;;;3.13;1.92;;;;;;;29.50;28.39;100337.47;5071910;28;20298;-63
2023/05/04 11:50:48;;;;;;;1.70;1.50;;;;;;;28.56;28.81;100340.81;5072034;28;20074;-63
2023/05/04 11:53:13;;;;;;;3.38;1.80;;;;;;;29.49;28.25;100335.00;5072072;28;20417;-62
2023/05/04 11:55:40;;;;;;;2.10;1.90;;;;;;;28.39;28.74;100332.22;5071836;28;20119;-63
2023/05/04 11:58:10;;;;;;;2.00;1.70;;;;;;;29.29;28.72;100325.97;5071595;28;20036;-63
2023/05/04 12:00:38;;;;;;;2.20;1.77;;;;;;;30.08;27.74;100331.63;5071834;28;20036;-63
2023/05/04 12:03:08;;;;;;;1.80;1.38;;;;;;;29.96;27.43;100323.84;5071976;28;20033;-62
2023/05/04 12:05:35;;;;;;;2.08;1.80;;;;;;;30.37;27.65;100317.66;5072074;28;20039;-62
2023/05/04 12:08:02;;;;;;;;;;;;;;;30.41;27.04;100328.88;5072012;28;20044;-62
2023/05/04 12:10:33;;;;;;;2.17;1.38;;;;;;;30.26;26.75;100316.25;5071899;28;19917;-65
2023/05/04 12:12:59;;;;;;;1.90;1.80;;;;;;;28.90;27.09;100324.25;5071890;28;20040;-62
2023/05/04 12:15:31;;;;;;;1.90;1.70;;;;;;;30.14;26.74;100315.91;5071821;28;20055;-65
2023/05/04 12:17:56;;;;;;;1.83;1.63;;;;;;;29.46;27.01;100309.78;5071513;28;20603;-64
2023/05/04 12:20:24;;;;;;;1.73;1.35;;;;;;;30.70;25.62;100312.09;5071733;28;20074;-64
2023/05/04 12:22:49;;;;;;;1.90;1.50;;;;;;;30.27;26.95;100301.38;5070351;28;20040;-64
2023/05/04 12:25:18;;;;;;;1.80;1.40;;;;;;;30.36;26.12;100293.25;5070795;28;20071;-63
2023/05/04 12:27:43;;;;;;;2.10;1.40;;;;;;;30.95;26.04;100297.84;5071335;28;20033;-63
2023/05/04 12:30:09;;;;;;;2.75;1.50;;;;;;;31.53;24.47;100299.84;5071824;28;20045;-64
2023/05/04 12:32:35;;;;;;;2.13;1.50;;;;;;;31.22;24.61;100296.97;5071654;28;20033;-64
2023/05/04 12:35:00;;;;;;;1.63;1.43;;;;;;;31.30;24.11;100287.22;5071722;28;20094;-64
2023/05/04 12:37:26;;;;;;;1.50;1.20;;;;;;;31.55;24.18;100288.53;5071209;28;20409;-64
2023/05/04 12:39:51;;;;;;;1.40;1.30;;;;;;;31.41;24.39;100285.00;5071615;28;20132;-63
2023/05/04 12:42:17;;;;;;;1.73;1.43;;;;;;;31.15;24.42;100284.75;5072151;28;20040;-63
2023/05/04 12:44:42;;;;;;;1.50;1.40;;;;;;;31.45;25.31;100275.84;5075807;28;20039;-63
2023/05/04 12:47:08;;;;;;;1.83;1.30;;;;;;;31.82;23.21;100282.09;5075345;28;20033;-64
2023/05/04 12:49:33;;;;;;;2.73;1.50;;;;;;;31.65;23.78;100273.72;5075642;28;20048;-64
2023/05/04 12:51:58;;;;;;;1.70;1.20;;;;;;;31.36;24.46;100279.63;5075443;28;20037;-64
2023/05/04 12:54:24;;;;;;;1.50;1.37;;;;;;;31.12;24.47;100263.38;5075500;28;20048;-63
2023/05/04 12:56:50;;;;;;;2.07;1.40;;;;;;;31.34;24.62;100257.94;5075162;28;20045;-64
2023/05/04 12:59:15;;;;;;;3.53;1.60;;;;;;;31.50;24.23;100270.22;5075261;28;20036;-63
2023/05/04 13:01:42;;;;;;;2.40;1.53;;;;;;;31.85;23.34;100259.47;5075341;28;20068;-63
2023/05/04 13:04:07;;;;;;;1.52;1.35;;;;;;;31.94;23.81;100265.00;5075438;28;20586;-63
2023/05/04 13:06:33;;;;;;;1.77;1.60;;;;;;;32.24;23.41;100257.88;5075097;28;20033;-63
2023/05/04 13:09:00;;;;;;;1.70;1.33;;;;;;;31.44;24.37;100248.63;5074864;28;20171;-64
2023/05/04 13:11:26;;;;;;;1.63;1.42;;;;;;;31.92;22.80;100251.56;5075035;28;20504;-64
2023/05/04 13:13:52;;;;;;;1.37;1.27;;;;;;;31.86;23.56;100242.63;5075119;28;20040;-64
2023/05/04 13:16:17;;;;;;;2.30;1.23;;;;;;;32.06;22.52;100244.00;5074964;28;20033;-64
2023/05/04 13:18:43;;;;;;;1.60;1.50;;;;;;;31.34;23.19;100235.91;5074638;28;20496;-65
2023/05/04 13:21:08;;;;;;;1.47;1.37;;;;;;;31.56;22.69;100224.94;5068740;28;20390;-63
2023/05/04 13:23:33;;;;;;;1.83;1.43;;;;;;;31.39;23.57;100230.31;5065134;28;20127;-63
2023/05/04 13:25:59;;;;;;;1.50;1.40;;;;;;;30.20;24.86;100218.56;5054827;28;20494;-63
2023/05/04 13:28:24;;;;;;;2.17;1.73;;;;;;;30.71;24.72;100215.63;5054579;28;20048;-64
2023/05/04 13:30:50;;;;;;;1.90;1.40;;;;;;;30.92;24.48;100212.41;5054800;28;20036;-63
2023/05/04 13:33:16;;;;;;;1.55;1.40;;;;;;;30.35;24.97;100203.69;5054738;28;20047;-64
2023/05/04 13:35:41;;;;;;;1.50;1.40;;;;;;;29.84;25.03;100199.97;5054477;28;20037;-63
2023/05/04 13:38:07;;;;;;;2.53;1.60;;;;;;;29.69;25.19;100192.84;5054366;28;20045;-63
2023/05/04 13:40:33;;;;;;;3.85;1.50;;;;;;;29.23;31.00;100195.50;5053532;28;20040;-58
2023/05/04 13:42:58;;;;;;;1.58;1.33;;;;;;;29.08;32.63;100196.56;5054545;28;20044;-56
2023/05/04 13:45:23;;;;;;;2.65;1.40;;;;;;;28.31;28.48;100196.75;5054508;28;20040;-58
2023/05/04 13:47:49;;;;;;;1.67;1.40;;;;;;;28.10;27.73;100192.56;5054115;28;20106;-59
2023/05/04 13:50:14;;;;;;;1.60;1.45;;;;;;;27.55;27.52;100189.25;5054205;28;20037;-59
2023/05/04 13:52:40;;;;;;;1.60;1.35;;;;;;;27.56;28.65;100177.22;5054357;28;20069;-64
2023/05/04 13:55:05;;;;;;;2.08;1.50;;;;;;;27.55;27.58;100178.31;5053844;28;20043;-63
2023/05/04 13:57:31;;;;;;;2.08;1.40;;;;;;;27.22;28.87;100179.97;5053889;28;20548;-64
2023/05/04 13:59:57;;;;;;;1.88;1.42;;;;;;;26.98;28.69;100160.69;5054262;28;20501;-63
2023/05/04 14:02:22;;;;;;;1.92;1.50;;;;;;;26.50;28.77;100163.97;5054117;28;20410;-64
2023/05/04 14:04:49;;;;;;;1.63;1.40;;;;;;;26.47;29.47;100156.38;5053867;28;20075;-64
2023/05/04 14:07:15;;;;;;;1.77;1.40;;;;;;;26.57;29.46;100147.28;5053666;28;20037;-63
2023/05/04 14:09:41;;;;;;;1.90;1.52;;;;;;;26.70;29.03;100154.03;5052706;28;20037;-64
2023/05/04 14:12:06;;;;;;;1.60;1.50;;;;;;;26.19;28.94;100146.88;5052786;28;20033;-62
2023/05/04 14:14:32;;;;;;;2.50;1.65;;;;;;;26.46;29.54;100132.03;5053955;28;20045;-63
2023/05/04 14:16:57;;;;;;;1.90;1.70;;;;;;;26.39;29.55;100134.25;5053355;28;20052;-64
2023/05/04 14:19:25;;;;;;;1.88;1.52;;;;;;;26.12;30.03;100120.97;5053685;28;20103;-64
2023/05/04 14:21:50;;;;;;;;;;;;;;;26.41;29.67;100126.63;5054023;28;20155;-65
2023/05/04 14:24:15;;;;;;;2.28;1.73;;;;;;;26.52;29.17;100128.19;5053779;28;19924;-64
2023/05/04 14:26:41;;;;;;;1.48;1.38;;;;;;;26.28;29.25;100111.66;5053750;28;20035;-64
2023/05/04 14:29:06;;;;;;;3.00;1.50;;;;;;;26.32;29.18;100122.81;5052351;28;20478;-66
2023/05/04 14:31:32;;;;;;;2.42;1.40;;;;;;;26.23;29.33;100115.22;5052423;28;20035;-66
2023/05/04 14:33:57;;;;;;;1.83;1.50;;;;;;;25.80;30.00;100113.19;5053607;28;20577;-64
2023/05/04 14:36:22;;;;;;;2.10;1.60;;;;;;;26.04;29.13;100110.66;5053542;28;20044;-65
2023/05/04 14:38:48;;;;;;;1.40;1.30;;;;;;;26.08;29.28;100098.91;5053149;28;20037;-65
2023/05/04 14:41:14;;;;;;;1.42;1.15;;;;;;;26.10;28.64;100112.28;5053423;28;20414;-64
2023/05/04 14:43:41;;;;;;;2.63;1.50;;;;;;;26.03;29.19;100117.22;5053406;28;20045;-64
2023/05/04 14:46:08;;;;;;;1.92;1.48;;;;;;;25.98;29.91;100115.31;5053297;28;20524;-65
2023/05/04 14:48:33;;;;;;;1.85;1.40;;;;;;;26.16;29.04;100111.97;5053011;28;20041;-62
2023/05/04 14:50:59;;;;;;;3.03;1.70;;;;;;;25.86;28.92;100115.63;5053243;28;20036;-65
2023/05/04 14:53:25;;;;;;;1.38;1.27;;;;;;;25.87;29.06;100111.78;5053284;28;20044;-65
2023/05/04 14:55:51;;;;;;;3.55;1.83;;;;;;;25.67;29.24;100109.91;5053334;28;20040;-65
2023/05/04 14:58:17;;;;;;;1.60;1.40;;;;;;;25.96;29.70;100112.88;5052932;28;20102;-64
2023/05/04 15:00:44;;;;;;;2.38;1.40;;;;;;;25.92;29.72;100108.22;5053132;28;20083;-64
2023/05/04 15:03:09;;;;;;;2.03;1.60;;;;;;;25.98;29.36;100102.47;5052926;28;20086;-65
2023/05/04 15:05:35;;;;;;;1.60;1.50;;;;;;;25.83;29.65;100108.00;5051921;28;20123;-64
2023/05/04 15:08:00;;;;;;;4.28;1.50;;;;;;;25.99;29.85;100108.75;5052537;28;20037;-65
2023/05/04 15:10:25;;;;;;;1.70;1.60;;;;;;;25.65;29.15;100109.38;5052831;28;20083;-63
2023/05/04 15:12:52;;;;;;;1.80;1.58;;;;;;;25.66;29.05;100102.00;5052827;28;20459;-64
2023/05/04 15:15:19;;;;;;;2.33;1.73;;;;;;;25.60;29.87;100109.38;5052669;28;20099;-65
2023/05/04 15:17:45;;;;;;;1.73;1.45;;;;;;;25.39;30.56;100111.31;5052324;28;20064;-64
2023/05/04 15:20:12;;;;;;;3.80;1.70;;;;;;;25.51;29.93;100108.31;5052651;28;20037;-64
2023/05/04 15:22:38;;;;;;;2.80;1.67;;;;;;;24.98;30.24;100093.31;5052620;28;20402;-64
2023/05/04 15:25:04;;;;;;;2.28;1.58;;;;;;;25.18;30.42;100096.06;5052583;28;20045;-66
2023/05/04 15:27:29;;;;;;;2.03;1.30;;;;;;;25.32;29.96;100093.63;5055821;28;20035;-65
2023/05/04 15:29:55;;;;;;;1.67;1.42;;;;;;;25.31;30.93;100092.78;5074965;28;20518;-63
2023/05/04 15:32:20;;;;;;;2.15;1.50;;;;;;;25.20;30.85;100093.88;5072201;28;20028;-64
2023/05/04 15:34:46;;;;;;;2.00;1.40;;;;;;;25.30;31.95;100090.31;5085275;28;20400;-54
2023/05/04 15:37:11;;;;;;;2.00;1.50;;;;;;;25.25;33.75;100093.06;5067849;28;20036;-52
2023/05/04 15:39:36;;;;;;;1.55;1.33;;;;;;;25.29;34.77;100086.78;5071326;28;20110;-54
2023/05/04 15:42:03;;;;;;;2.33;1.58;;;;;;;25.38;30.77;100084.34;5062520;28;20473;-52
2023/05/04 15:44:30;;;;;;;2.72;1.90;;;;;;;25.47;31.78;100079.13;5063350;28;20052;-48
2023/05/04 15:46:56;;;;;;;2.63;1.55;;;;;;;25.38;31.56;100084.34;5066508;28;20508;-50